WetterOnline ( https://www.wetteronline.de )

Wetter aktuell Schwedt/Oder

Aktuelles Wetter: Angermünde (55m)

6-stündlich | Neueste Meldungen
Ortszeit Temperatur Wetter
Sa, 15.06. 2:00 13.3° C wolkig
Fr, 14.06. 20:00 16.8° C bedeckt
Fr, 14.06. 14:00 19.0° C bedeckt
Fr, 14.06. 8:00 12.1° C wolkig
Fr, 14.06. 2:00 8.9° C wolkig
Do, 13.06. 20:00 16.9° C bewölkt
Do, 13.06. 14:00 15.6° C wolkig
Do, 13.06. 8:00 11.5° C bedeckt
Ortszeit Temperatur Wetter
Sa, 15.06. 2:30 13.0° C wolkig
Sa, 15.06. 2:20 13.0° C wolkig
Sa, 15.06. 2:10 13.0° C bedeckt
Sa, 15.06. 2:00 13.3° C wolkig
Sa, 15.06. 1:50 13.3° C wolkig
Sa, 15.06. 1:40 13.7° C bedeckt
Sa, 15.06. 1:30 13.8° C wolkig
Sa, 15.06. 1:00 14.2° C bewölkt
Sa, 15.06. 0:30 15.0° C bewölkt
Sa, 15.06. 0:00 15.3° C bedeckt
Fr, 14.06. 23:30 15.2° C bedeckt
Ortszeit Relative Feuchte Sichtweite
Sa, 15.06. 2:00 77% 55 km
Fr, 14.06. 20:00 64% 55 km
Fr, 14.06. 14:00 49% 55 km
Fr, 14.06. 8:00 73% 45 km
Fr, 14.06. 2:00 93% 30 km
Do, 13.06. 20:00 48% 65 km
Do, 13.06. 14:00 49% >70 km
Do, 13.06. 8:00 77% 60 km
Ortszeit Relative Feuchte Sichtweite
Sa, 15.06. 2:30 78% 45 km
Sa, 15.06. 2:20 78% -
Sa, 15.06. 2:10 78% -
Sa, 15.06. 2:00 77% 55 km
Sa, 15.06. 1:50 77% -
Sa, 15.06. 1:40 75% -
Sa, 15.06. 1:30 75% 50 km
Sa, 15.06. 1:00 74% 55 km
Sa, 15.06. 0:30 72% 55 km
Sa, 15.06. 0:00 72% 50 km
Fr, 14.06. 23:30 75% 50 km
Ortszeit Niederschlagsmenge Niederschlagsart
Sa, 15.06. 2:00 0.1 l/m2 in 6 Std. Regen
Fr, 14.06. 20:00 0.1 l/m2 in 12 Std. Regen
Fr, 14.06. 14:00 0.0 l/m2 in 6 Std. -
Fr, 14.06. 8:00 0.0 l/m2 in 12 Std. -
Fr, 14.06. 2:00 0.0 l/m2 in 6 Std. -
Do, 13.06. 20:00 0.1 l/m2 in 12 Std. -
Do, 13.06. 14:00 0.1 l/m2 in 6 Std. Regen
Do, 13.06. 8:00 0.1 l/m2 in 12 Std. -
Ortszeit Niederschlagsmenge Niederschlagsart
Sa, 15.06. 2:30 0.0 l/m2 in 30 Min -
Sa, 15.06. 2:20 keine Meldung -
Sa, 15.06. 2:10 keine Meldung -
Sa, 15.06. 2:00 0.0 l/m2 in 1 Std. Regen
Sa, 15.06. 1:50 keine Meldung -
Sa, 15.06. 1:40 keine Meldung -
Sa, 15.06. 1:30 0.0 l/m2 in 30 Min -
Sa, 15.06. 1:00 0.0 l/m2 in 1 Std. -
Sa, 15.06. 0:30 0.0 l/m2 in 30 Min -
Sa, 15.06. 0:00 0.0 l/m2 in 1 Std. -
Fr, 14.06. 23:30 0.0 l/m2 in 30 Min -
Ortszeit Stärke Spitze Richtung
km/h Bft. km/h Grad Sektor
Sa, 15.06. 2:00 11 2 18 150° SO
Fr, 14.06. 20:00 11 2 36 140° SO
Fr, 14.06. 14:00 22 4 36 150° SO
Fr, 14.06. 8:00 9 2 20 150° SO
Fr, 14.06. 2:00 4 1 14 190° S
Do, 13.06. 20:00 15 3 31 320° NW
Do, 13.06. 14:00 14 3 32 250° W
Do, 13.06. 8:00 9 2 19 280° W
Ortszeit Stärke Spitze Richtung
km/h Bft. km/h Grad Sektor
Sa, 15.06. 2:30 9 2 17 150° SO
Sa, 15.06. 2:20 9 2 - 150° SO
Sa, 15.06. 2:10 9 2 - 150° SO
Sa, 15.06. 2:00 11 2 18 150° SO
Sa, 15.06. 1:50 11 2 - 150° SO
Sa, 15.06. 1:40 11 2 - 150° SO
Sa, 15.06. 1:30 9 2 13 150° SO
Sa, 15.06. 1:00 7 2 14 160° S
Sa, 15.06. 0:30 9 2 15 140° SO
Sa, 15.06. 0:00 6 1 9 130° SO
Fr, 14.06. 23:30 4 1 7 120° SO
Ortszeit Untergrenze Bedeckung Gattung
total tief tief mittel hoch
Sa, 15.06. 2:00 8400 m 8/8 0/8 - - -
Fr, 14.06. 20:00 1800 m 8/8 8/8 - - -
Fr, 14.06. 14:00 3000 m 8/8 8/8 - - -
Fr, 14.06. 8:00 2400 m 8/8 1/8 - - -
Fr, 14.06. 2:00 3600 m 8/8 3/8 - - -
Do, 13.06. 20:00 2400 m 7/8 7/8 - - -
Do, 13.06. 14:00 2100 m 5/8 5/8 - - -
Do, 13.06. 8:00 5100 m 8/8 8/8 - - -
Ortszeit Bedeckungsgrad in Achtel und Wolkenuntergrenze
Sa, 15.06. 2:30 2(8700m) 7(9000m) 8(9000m)
Sa, 15.06. 2:20 2(8700m) 7(9000m) 8(9000m)
Sa, 15.06. 2:10 8
Sa, 15.06. 2:00 2(8400m) 7(9000m) 8(10500m)
Sa, 15.06. 1:50 2(8400m) 7(9000m) 8(10500m)
Sa, 15.06. 1:40 8
Sa, 15.06. 1:30 3(8400m) 6(9000m) 8(10500m)
Sa, 15.06. 1:00 4(2700m) 8(8700m) 8(9000m)
Sa, 15.06. 0:30 7(2700m) 7(9000m) 8(9000m)
Sa, 15.06. 0:00 3(2100m) 8(2700m)
Fr, 14.06. 23:30 1(1500m) 7(2100m) 8(2700m)
Ortszeit Luftdruck NN (hPa) Tendenz (hPa in 3 Std.)
Sa, 15.06. 2:00 1009 - 1,6
Fr, 14.06. 20:00 1011 - 1,5
Fr, 14.06. 14:00 1013 - 1,1
Fr, 14.06. 8:00 1015 - 0,6
Fr, 14.06. 2:00 1016 - 0,4
Do, 13.06. 20:00 1017 + 0,2
Do, 13.06. 14:00 1017 - 0,8
Do, 13.06. 8:00 1018 + 0,5
Ortszeit Luftdruck NN (hPa) Tendenz (hPa in 3 Std.)
Sa, 15.06. 2:30 1009 - 1,5
Sa, 15.06. 2:20 1009 keine Meldung
Sa, 15.06. 2:10 1009 keine Meldung
Sa, 15.06. 2:00 1009 - 1,6
Sa, 15.06. 1:50 1009 keine Meldung
Sa, 15.06. 1:40 1009 keine Meldung
Sa, 15.06. 1:30 1010 - 1,5
Sa, 15.06. 1:00 1010 - 1,4
Sa, 15.06. 0:30 1010 - 1,2
Sa, 15.06. 0:00 1010 - 0,9
Fr, 14.06. 23:30 1011 - 0,8
Ortszeit Schneehöhe (cm)
Sa, 15.06. 2:00 0
Fr, 14.06. 20:00 0
Fr, 14.06. 14:00 0
Fr, 14.06. 8:00 0
Fr, 14.06. 2:00 0
Do, 13.06. 20:00 0
Do, 13.06. 14:00 0
Do, 13.06. 8:00 0
Ortszeit Schneehöhe (cm)
Sa, 15.06. 2:30 0
Sa, 15.06. 2:20 0
Sa, 15.06. 2:10 -
Sa, 15.06. 2:00 0
Sa, 15.06. 1:50 0
Sa, 15.06. 1:40 -
Sa, 15.06. 1:30 0
Sa, 15.06. 1:00 0
Sa, 15.06. 0:30 0
Sa, 15.06. 0:00 0
Fr, 14.06. 23:30 0
Link zu dieser Seite / Seite empfehlen

Das Wetter in ...